Time;durP1;ratioP1;P1;durP2;ratioP2;P2;SDS_P1;SDS_P2;PMS_P1;PMS_P2;Temp;Humidity;BMP_temperature;BMP_pressure;BME280_temperature;BME280_humidity;BME280_pressure;Samples;Min_cycle;Max_cycle;Signal;HPM_P1;HPM_P2
2021/07/25 00:01:27;;;;;;;13.13;11.95;;;;;;;24.64;54.62;100645.34;6124906;28;21268;-61
2021/07/25 00:04:51;;;;;;;13.70;12.32;;;;;;;24.61;54.21;100645.59;6127818;28;20247;-60
2021/07/25 00:08:12;;;;;;;14.35;12.90;;;;;;;24.40;54.47;100638.13;6129420;28;20231;-61
2021/07/25 00:11:34;;;;;;;12.00;10.80;;;;;;;24.45;54.50;100636.00;6132627;28;20628;-61
2021/07/25 00:14:55;;;;;;;13.27;12.20;;;;;;;24.39;54.90;100636.44;6130283;28;20460;-59
2021/07/25 00:18:16;;;;;;;14.85;13.25;;;;;;;24.68;53.43;100647.72;6132808;28;20598;-62
2021/07/25 00:21:37;;;;;;;14.32;13.15;;;;;;;24.55;53.95;100642.41;6111267;28;20326;-61
2021/07/25 00:25:07;;;;;;;13.50;11.90;;;;;;;24.50;54.32;100643.66;6134560;28;20231;-60
2021/07/25 00:28:41;;;;;;;12.93;11.82;;;;;;;24.14;55.59;100634.63;6125917;28;20235;-60
2021/07/25 00:32:04;;;;;;;12.70;11.48;;;;;;;24.18;55.54;100628.13;6134215;28;20585;-61
2021/07/25 00:35:25;;;;;;;13.30;12.10;;;;;;;24.02;55.59;100641.63;6133314;28;20235;-62
2021/07/25 00:38:47;;;;;;;13.80;12.63;;;;;;;24.04;55.57;100644.16;6135972;28;20465;-60
2021/07/25 00:42:07;;;;;;;13.40;12.13;;;;;;;23.95;55.40;100633.22;6130884;28;20230;-61
2021/07/25 00:45:30;;;;;;;16.42;11.40;;;;;;;24.00;55.28;100635.56;6132708;28;20641;-61
2021/07/25 00:48:51;;;;;;;13.60;12.40;;;;;;;24.09;54.96;100634.91;6132950;28;20498;-61
2021/07/25 00:52:12;;;;;;;12.82;11.52;;;;;;;24.09;54.53;100640.25;6110944;28;20317;-62
2021/07/25 00:55:33;;;;;;;13.75;12.68;;;;;;;24.00;54.84;100635.56;6138893;28;20270;-62
2021/07/25 00:58:54;;;;;;;13.80;12.60;;;;;;;23.96;55.23;100644.69;6129048;28;20235;-60
2021/07/25 01:02:17;;;;;;;12.48;11.48;;;;;;;23.81;54.97;100635.09;6107329;28;20235;-62
2021/07/25 01:05:45;;;;;;;13.23;11.65;;;;;;;23.96;54.81;100639.38;6102443;28;20508;-61
2021/07/25 01:09:13;;;;;;;12.88;11.48;;;;;;;24.02;54.62;100633.66;6133064;28;20219;-61
2021/07/25 01:12:38;;;;;;;12.55;11.40;;;;;;;23.93;54.89;100642.25;6148677;28;20234;-62
2021/07/25 01:16:00;;;;;;;11.95;10.95;;;;;;;24.26;53.66;100639.09;6133338;28;20338;-61
2021/07/25 01:19:22;;;;;;;12.60;11.27;;;;;;;24.09;54.35;100626.09;6130424;28;20798;-61
2021/07/25 01:22:46;;;;;;;14.65;11.63;;;;;;;23.97;54.77;100620.66;6131254;28;20235;-61
2021/07/25 01:26:10;;;;;;;12.95;11.70;;;;;;;23.94;54.72;100617.34;6102086;28;20422;-62
2021/07/25 01:29:31;;;;;;;13.50;12.23;;;;;;;23.65;55.75;100611.31;6140213;28;20235;-62
2021/07/25 01:32:56;;;;;;;12.65;11.45;;;;;;;23.78;55.44;100617.53;6114456;28;20231;-59
2021/07/25 01:36:17;;;;;;;15.05;13.45;;;;;;;23.75;55.44;100615.94;6140062;28;20553;-61
2021/07/25 01:39:40;;;;;;;11.45;10.45;;;;;;;23.78;55.66;100615.72;6108871;28;20329;-61
2021/07/25 01:43:01;;;;;;;16.33;11.98;;;;;;;23.71;55.62;100614.44;6134595;28;20223;-60
2021/07/25 01:46:22;;;;;;;12.10;11.13;;;;;;;23.59;56.11;100615.25;6140791;28;20243;-60
2021/07/25 01:49:43;;;;;;;12.93;11.32;;;;;;;23.66;56.05;100621.00;6131853;28;20584;-60
2021/07/25 01:53:04;;;;;;;12.93;11.68;;;;;;;23.64;56.14;100634.41;6138234;28;20590;-60
2021/07/25 01:56:28;;;;;;;12.27;11.10;;;;;;;23.55;56.19;100627.03;6112935;28;20235;-61
2021/07/25 01:59:49;;;;;;;13.85;12.32;;;;;;;23.74;55.41;100630.16;6141583;28;20235;-60
2021/07/25 02:03:10;;;;;;;11.88;10.88;;;;;;;23.70;55.75;100633.13;6135516;28;20704;-60
2021/07/25 02:06:35;;;;;;;14.38;12.93;;;;;;;23.69;55.72;100647.38;6134689;28;20664;-60
2021/07/25 02:09:56;;;;;;;13.93;12.05;;;;;;;23.74;55.76;100646.09;6105793;28;20235;-60
2021/07/25 02:13:20;;;;;;;13.65;12.27;;;;;;;23.71;55.95;100638.34;6139149;28;20637;-61
2021/07/25 02:16:42;;;;;;;13.35;12.18;;;;;;;23.56;56.35;100650.00;6116076;28;20343;-60
2021/07/25 02:20:03;;;;;;;13.15;11.77;;;;;;;23.28;57.02;100651.81;6134465;28;20845;-62
2021/07/25 02:23:24;;;;;;;13.65;12.35;;;;;;;22.85;58.56;100643.06;6136460;28;20231;-59
2021/07/25 02:26:45;;;;;;;13.95;11.95;;;;;;;23.16;57.86;100641.97;6136294;28;20326;-61
2021/07/25 02:30:08;;;;;;;12.63;11.60;;;;;;;23.30;57.32;100643.72;6138704;28;20717;-60
2021/07/25 02:33:32;;;;;;;13.98;12.57;;;;;;;23.48;56.80;100655.00;6138231;28;20236;-60
2021/07/25 02:36:53;;;;;;;12.13;10.93;;;;;;;23.06;58.09;100659.47;6130916;28;20810;-60
2021/07/25 02:40:14;;;;;;;13.70;11.40;;;;;;;22.67;59.76;100655.69;6135470;28;20621;-61
2021/07/25 02:43:35;;;;;;;13.07;11.82;;;;;;;23.09;58.23;100659.25;6101304;28;20231;-61
2021/07/25 02:46:57;;;;;;;14.50;13.23;;;;;;;23.13;58.51;100652.81;6137796;28;20256;-60
2021/07/25 02:50:19;;;;;;;13.93;12.48;;;;;;;23.12;58.46;100659.91;6131185;28;20918;-61
2021/07/25 02:53:40;;;;;;;16.17;14.48;;;;;;;23.16;58.14;100668.53;6113281;28;20683;-60
2021/07/25 02:57:01;;;;;;;14.80;13.50;;;;;;;22.53;60.16;100675.97;6134326;28;20322;-60
2021/07/25 03:00:22;;;;;;;13.57;12.38;;;;;;;22.79;59.31;100678.81;6131587;28;20231;-60
2021/07/25 03:03:44;;;;;;;15.32;13.82;;;;;;;23.09;58.47;100686.69;6132562;28;20231;-61
2021/07/25 03:07:05;;;;;;;14.32;13.10;;;;;;;22.82;59.30;100683.94;6131466;28;20338;-61
2021/07/25 03:10:26;;;;;;;15.77;14.30;;;;;;;22.71;59.80;100697.00;6132302;28;20235;-61
2021/07/25 03:13:49;;;;;;;14.13;12.88;;;;;;;22.12;61.95;100704.94;6143797;28;20346;-61
2021/07/25 03:17:10;;;;;;;15.48;14.10;;;;;;;22.48;60.81;100704.56;6125023;28;20325;-62
2021/07/25 03:20:32;;;;;;;16.63;15.15;;;;;;;22.50;60.72;100710.63;6131249;28;20242;-60
2021/07/25 03:23:53;;;;;;;16.15;14.55;;;;;;;22.57;60.73;100700.53;6136859;28;20565;-62
2021/07/25 03:27:14;;;;;;;15.68;14.38;;;;;;;22.23;61.76;100700.72;6128987;28;20235;-61
2021/07/25 03:30:36;;;;;;;16.50;15.00;;;;;;;22.60;60.92;100710.94;6125650;28;20230;-61
2021/07/25 03:33:59;;;;;;;16.88;15.25;;;;;;;22.38;61.54;100712.25;6126723;28;20239;-61
2021/07/25 03:37:21;;;;;;;15.20;13.77;;;;;;;22.38;61.79;100725.50;6134412;28;20243;-61
2021/07/25 03:40:42;;;;;;;17.80;16.13;;;;;;;22.11;63.14;100713.84;6122728;28;20516;-61
2021/07/25 03:44:04;;;;;;;17.05;15.25;;;;;;;22.12;63.31;100724.38;6135682;28;20235;-61
2021/07/25 03:47:24;;;;;;;17.45;15.73;;;;;;;22.48;62.15;100723.16;6131515;28;20246;-61
2021/07/25 03:50:45;;;;;;;17.40;15.93;;;;;;;21.85;64.53;100725.97;6108908;28;20230;-61
2021/07/25 03:54:08;;;;;;;17.05;15.63;;;;;;;22.40;62.89;100720.09;6137624;28;20239;-61
2021/07/25 03:57:29;;;;;;;19.73;17.95;;;;;;;21.92;64.62;100719.38;6140606;28;20230;-61
2021/07/25 04:00:50;;;;;;;19.08;17.38;;;;;;;21.95;64.49;100724.50;6120007;28;20238;-61
2021/07/25 04:04:11;;;;;;;20.40;18.30;;;;;;;21.86;65.03;100722.38;6129053;28;20613;-61
2021/07/25 04:07:32;;;;;;;19.95;18.35;;;;;;;22.15;64.27;100726.84;6133853;28;20243;-60
2021/07/25 04:10:56;;;;;;;21.92;19.77;;;;;;;22.32;63.88;100728.53;6129884;28;20506;-60
2021/07/25 04:14:17;;;;;;;22.67;20.58;;;;;;;21.60;66.47;100719.44;6113724;28;20326;-61
2021/07/25 04:17:38;;;;;;;25.75;23.33;;;;;;;21.47;67.24;100723.72;6133632;28;20612;-62
2021/07/25 04:20:58;;;;;;;25.75;23.13;;;;;;;21.12;68.71;100734.44;6112962;28;20436;-60
2021/07/25 04:24:19;;;;;;;23.45;21.30;;;;;;;21.56;67.16;100733.81;6124721;28;20238;-61
2021/07/25 04:27:42;;;;;;;25.70;23.35;;;;;;;21.36;68.18;100738.38;6130842;28;20228;-60
2021/07/25 04:31:04;;;;;;;26.55;24.05;;;;;;;21.36;68.26;100745.47;6130144;28;20226;-61
2021/07/25 04:34:25;;;;;;;25.38;22.95;;;;;;;21.80;66.73;100748.28;6127598;28;20235;-60
2021/07/25 04:37:49;;;;;;;26.80;24.42;;;;;;;21.39;67.88;100754.09;6128278;28;20255;-61
2021/07/25 04:41:14;;;;;;;25.90;23.67;;;;;;;21.33;68.37;100754.44;6138068;28;20231;-60
2021/07/25 04:44:45;;;;;;;26.33;23.80;;;;;;;21.74;66.86;100753.09;6135810;28;20227;-62
2021/07/25 04:48:15;;;;;;;28.73;26.05;;;;;;;21.51;67.72;100754.41;6130403;28;20643;-62
2021/07/25 04:51:37;;;;;;;29.52;26.77;;;;;;;21.67;67.01;100749.94;6136365;28;20227;-60
2021/07/25 04:55:01;;;;;;;30.63;27.90;;;;;;;21.29;68.13;100757.34;6132624;28;20258;-61
2021/07/25 04:58:29;;;;;;;27.50;24.88;;;;;;;21.95;66.05;100757.19;6126542;28;20246;-59
2021/07/25 05:01:53;;;;;;;33.33;29.92;;;;;;;21.66;67.20;100766.78;6138681;28;21634;-61
2021/07/25 05:05:16;;;;;;;30.20;27.27;;;;;;;22.23;65.11;100777.63;6142184;28;20250;-63
2021/07/25 05:08:38;;;;;;;23.23;21.13;;;;;;;22.37;64.42;100773.34;6142605;28;20318;-60
2021/07/25 05:12:01;;;;;;;29.23;26.30;;;;;;;22.33;64.73;100782.44;6135986;28;20222;-59
2021/07/25 05:15:30;;;;;;;29.88;27.17;;;;;;;21.76;67.28;100767.97;6136650;28;20231;-61
2021/07/25 05:19:14;;;;;;;27.65;24.88;;;;;;;22.54;63.96;100786.47;6140439;28;20235;-62
2021/07/25 05:22:42;;;;;;;25.38;23.08;;;;;;;22.35;64.49;100785.84;6142891;28;20235;-61
2021/07/25 05:26:08;;;;;;;28.60;26.00;;;;;;;22.11;65.35;100788.97;6136782;28;20235;-62
2021/07/25 05:29:32;;;;;;;31.60;28.55;;;;;;;21.67;66.97;100787.03;6115218;28;20333;-60
2021/07/25 05:32:55;;;;;;;31.13;27.80;;;;;;;21.53;67.38;100782.50;6130620;28;20231;-60
2021/07/25 05:36:17;;;;;;;31.90;29.05;;;;;;;21.57;67.41;100785.84;6139061;28;20517;-61
2021/07/25 05:39:38;;;;;;;28.23;25.55;;;;;;;22.11;65.76;100782.81;6136589;28;20318;-61
2021/07/25 05:42:58;;;;;;;28.58;25.98;;;;;;;22.11;65.64;100788.97;6131326;28;20235;-60
2021/07/25 05:46:19;;;;;;;32.45;29.25;;;;;;;22.53;64.07;100790.06;6134485;28;20266;-61
2021/07/25 05:49:41;;;;;;;29.92;27.33;;;;;;;22.34;64.61;100795.59;6141754;28;20350;-60
2021/07/25 05:53:04;;;;;;;30.25;27.35;;;;;;;22.29;64.77;100797.66;6138564;28;20701;-61
2021/07/25 05:56:25;;;;;;;32.85;29.65;;;;;;;22.25;64.69;100805.91;6139273;28;20242;-62
2021/07/25 05:59:46;;;;;;;33.35;30.25;;;;;;;21.73;66.23;100810.56;6143961;28;20235;-61
2021/07/25 06:03:07;;;;;;;31.40;28.60;;;;;;;22.02;65.13;100805.38;6130212;28;20600;-61
2021/07/25 06:06:28;;;;;;;29.05;26.40;;;;;;;21.85;65.86;100809.03;6129555;28;20236;-62
2021/07/25 06:09:50;;;;;;;30.77;27.98;;;;;;;21.98;65.26;100806.50;6134794;28;20342;-63
2021/07/25 06:13:11;;;;;;;26.70;24.40;;;;;;;22.74;62.50;100808.28;6133674;28;20832;-63
2021/07/25 06:16:32;;;;;;;30.02;27.33;;;;;;;22.96;61.35;100805.22;6141145;28;20285;-62
2021/07/25 06:19:53;;;;;;;29.33;26.30;;;;;;;22.66;61.98;100815.88;6139532;28;20239;-63
2021/07/25 06:23:15;;;;;;;26.25;23.85;;;;;;;22.85;61.89;100811.16;6136319;28;20268;-63
2021/07/25 06:26:37;;;;;;;24.67;22.48;;;;;;;23.43;59.92;100822.69;6145770;28;20219;-63
2021/07/25 06:29:58;;;;;;;27.52;25.17;;;;;;;23.19;60.51;100825.91;6138920;28;20282;-63
2021/07/25 06:33:19;;;;;;;27.38;25.05;;;;;;;23.55;58.77;100815.72;6140803;28;20236;-62
2021/07/25 06:36:40;;;;;;;28.33;25.85;;;;;;;23.03;60.17;100824.28;6128957;28;20659;-63
2021/07/25 06:40:01;;;;;;;27.30;25.00;;;;;;;22.94;61.08;100825.69;6142596;28;20334;-63
2021/07/25 06:43:24;;;;;;;24.35;21.95;;;;;;;23.33;59.83;100834.84;6141231;28;20281;-62
2021/07/25 06:46:48;;;;;;;25.23;22.88;;;;;;;23.30;58.87;100841.22;6140663;28;20543;-64
2021/07/25 06:50:10;;;;;;;21.80;20.05;;;;;;;23.16;59.46;100835.88;6139339;28;20769;-63
2021/07/25 06:53:33;;;;;;;24.20;22.05;;;;;;;23.50;58.61;100828.47;6137947;28;20584;-63
2021/07/25 06:56:54;;;;;;;24.25;22.15;;;;;;;23.50;58.54;100828.47;6134087;28;20227;-63
2021/07/25 07:00:17;;;;;;;23.63;21.23;;;;;;;24.11;56.54;100827.19;6137375;28;20239;-63
2021/07/25 07:03:38;;;;;;;25.65;23.45;;;;;;;23.33;58.91;100835.69;6134676;28;20235;-63
2021/07/25 07:06:59;;;;;;;23.60;21.50;;;;;;;23.31;59.64;100844.72;6139682;28;20235;-63
2021/07/25 07:10:21;;;;;;;26.75;24.33;;;;;;;23.33;59.36;100841.00;6132237;28;20391;-63
2021/07/25 07:13:42;;;;;;;25.80;23.58;;;;;;;23.28;58.93;100835.09;6139178;28;20319;-63
2021/07/25 07:17:05;;;;;;;21.63;19.83;;;;;;;24.01;57.11;100838.56;6138683;28;20238;-64
2021/07/25 07:20:26;;;;;;;25.83;23.40;;;;;;;23.36;58.58;100846.13;6142294;28;20235;-65
2021/07/25 07:23:47;;;;;;;24.70;22.60;;;;;;;23.86;57.22;100832.41;6133807;28;20772;-63
2021/07/25 07:27:08;;;;;;;26.13;23.75;;;;;;;24.49;55.36;100841.59;6115730;28;20250;-62
2021/07/25 07:30:29;;;;;;;19.20;17.30;;;;;;;25.21;53.64;100836.66;6133845;28;20223;-62
2021/07/25 07:33:54;;;;;;;19.73;17.85;;;;;;;25.31;53.14;100837.72;6135093;28;20659;-61
2021/07/25 07:37:15;;;;;;;21.58;19.67;;;;;;;24.94;54.08;100840.28;6121494;28;20235;-63
2021/07/25 07:40:37;;;;;;;25.60;23.30;;;;;;;24.54;54.89;100835.03;6122014;28;20231;-63
2021/07/25 07:43:58;;;;;;;23.05;20.98;;;;;;;24.22;56.28;100836.28;6125491;28;20625;-60
2021/07/25 07:47:19;;;;;;;18.98;17.10;;;;;;;24.96;54.25;100838.34;6132802;28;20251;-62
2021/07/25 07:50:42;;;;;;;24.10;21.88;;;;;;;25.14;53.70;100835.38;6129506;28;20231;-52
2021/07/25 07:54:03;;;;;;;36.78;33.85;;;;;;;24.42;57.10;100834.97;6133677;28;20239;-48
2021/07/25 07:57:24;;;;;;;86.22;79.00;;;;;;;24.66;54.29;100841.31;6133234;28;20243;-45
2021/07/25 08:00:45;;;;;;;259.00;231.43;;;;;;;25.15;55.86;100848.59;6138148;28;20235;-52
2021/07/25 08:04:06;;;;;;;525.92;487.38;;;;;;;25.46;53.81;100841.13;6130959;28;20235;-53
2021/07/25 08:07:28;;;;;;;123.65;113.78;;;;;;;25.64;52.73;100841.63;6127443;28;20653;-50
2021/07/25 08:10:50;;;;;;;618.58;566.08;;;;;;;25.41;52.94;100847.75;6132827;28;20223;-51
2021/07/25 08:14:11;;;;;;;475.65;434.58;;;;;;;25.58;52.34;100839.41;6133597;28;20231;-53
2021/07/25 08:17:33;;;;;;;636.47;581.05;;;;;;;26.82;49.94;100856.03;6136692;28;20243;-55
2021/07/25 08:20:54;;;;;;;288.75;265.13;;;;;;;26.10;50.92;100856.97;6132016;28;20334;-53
2021/07/25 08:24:16;;;;;;;23.88;21.77;;;;;;;25.08;52.98;100859.78;6139936;28;20242;-53
2021/07/25 08:27:38;;;;;;;22.00;20.20;;;;;;;25.53;52.01;100857.53;6126227;28;20227;-52
2021/07/25 08:30:59;;;;;;;24.63;22.38;;;;;;;25.95;51.49;100854.59;6133618;28;20238;-53
2021/07/25 08:34:20;;;;;;;20.67;18.58;;;;;;;25.87;50.54;100855.09;6130213;28;20227;-53
2021/07/25 08:37:41;;;;;;;20.67;18.77;;;;;;;25.71;51.86;100850.88;6137799;28;20231;-52
2021/07/25 08:41:12;;;;;;;21.67;19.88;;;;;;;25.89;51.57;100859.34;6137072;28;20259;-53
2021/07/25 08:44:50;;;;;;;20.92;18.98;;;;;;;25.27;52.59;100862.91;6134767;28;20502;-51
2021/07/25 08:48:13;;;;;;;18.88;16.73;;;;;;;26.04;50.33;100862.75;6125643;28;20593;-55
2021/07/25 08:51:42;;;;;;;20.23;18.42;;;;;;;25.38;52.23;100858.63;6121458;28;20529;-52
2021/07/25 08:55:06;;;;;;;20.23;18.30;;;;;;;26.21;50.47;100858.84;6123624;28;20305;-52
2021/07/25 08:58:29;;;;;;;17.85;16.33;;;;;;;26.25;49.68;100851.44;6146639;28;20684;-55
2021/07/25 09:01:51;;;;;;;17.67;16.20;;;;;;;26.78;48.19;100851.91;6140904;28;20231;-54
2021/07/25 09:05:13;;;;;;;15.80;14.50;;;;;;;26.59;47.67;100856.97;6132091;28;20338;-53
2021/07/25 09:08:34;;;;;;;15.73;14.38;;;;;;;26.33;48.87;100857.09;6130248;28;20254;-55
2021/07/25 09:11:55;;;;;;;17.20;15.60;;;;;;;26.40;48.42;100846.78;6129416;28;20251;-55
2021/07/25 09:15:21;;;;;;;14.75;13.40;;;;;;;26.61;47.52;100857.69;6130532;28;20239;-53
2021/07/25 09:18:42;;;;;;;19.27;17.65;;;;;;;26.12;48.59;100849.69;6141760;28;20437;-54
2021/07/25 09:22:03;;;;;;;15.07;13.73;;;;;;;27.03;47.22;100858.03;6131006;28;20223;-56
2021/07/25 09:25:30;;;;;;;16.15;14.75;;;;;;;27.71;45.56;100842.03;6131840;28;20267;-55
2021/07/25 09:28:51;;;;;;;14.73;13.52;;;;;;;27.18;45.64;100843.47;6129021;28;20230;-56
2021/07/25 09:32:15;;;;;;;16.00;14.55;;;;;;;26.59;47.03;100851.63;6133586;28;20836;-56
2021/07/25 09:35:37;;;;;;;16.10;14.63;;;;;;;26.52;47.87;100846.72;6135829;28;20239;-52
2021/07/25 09:38:59;;;;;;;16.60;15.10;;;;;;;26.67;47.23;100844.72;6133224;28;20242;-56
2021/07/25 09:42:28;;;;;;;15.57;14.18;;;;;;;26.21;48.37;100852.63;6124381;28;20236;-52
2021/07/25 09:46:00;;;;;;;13.63;12.40;;;;;;;27.38;45.95;100843.75;6133602;28;20227;-56
2021/07/25 09:49:22;;;;;;;13.70;12.60;;;;;;;27.80;45.00;100833.22;6132489;28;20238;-53
2021/07/25 09:52:43;;;;;;;13.50;12.40;;;;;;;27.43;45.38;100844.22;6135656;28;20231;-56
2021/07/25 09:56:11;;;;;;;15.15;13.95;;;;;;;27.14;45.85;100849.16;6135892;28;20231;-55
2021/07/25 09:59:36;;;;;;;14.75;13.32;;;;;;;27.58;44.56;100836.78;6128772;28;20238;-55
2021/07/25 10:02:57;;;;;;;13.90;12.70;;;;;;;27.34;45.11;100847.66;6133006;28;20231;-52
2021/07/25 10:06:23;;;;;;;12.07;11.07;;;;;;;27.82;44.33;100832.13;6140153;28;20243;-55
2021/07/25 10:09:59;;;;;;;13.95;12.65;;;;;;;27.46;44.40;100838.63;6135032;28;20539;-54
2021/07/25 10:13:23;;;;;;;14.38;13.18;;;;;;;26.82;45.99;100852.53;6133214;28;20613;-55
2021/07/25 10:16:44;;;;;;;13.15;12.05;;;;;;;27.27;45.24;100847.25;6126203;28;20516;-54
2021/07/25 10:20:07;;;;;;;12.20;11.10;;;;;;;27.08;44.95;100848.69;6128229;28;20322;-50
2021/07/25 10:23:34;;;;;;;13.30;12.20;;;;;;;27.71;44.05;100845.53;6138078;28;20231;-54
2021/07/25 10:26:58;;;;;;;12.27;11.07;;;;;;;28.58;41.73;100850.06;6144810;28;20553;-55
2021/07/25 10:30:19;;;;;;;12.00;11.00;;;;;;;28.03;43.45;100839.41;6133575;28;20465;-54
2021/07/25 10:33:41;;;;;;;12.05;11.15;;;;;;;28.64;42.92;100844.16;6137734;28;20235;-56
2021/07/25 10:37:04;;;;;;;13.13;12.02;;;;;;;28.09;42.67;100844.22;6134117;28;20289;-50
2021/07/25 10:40:27;;;;;;;11.63;10.73;;;;;;;28.48;42.54;100840.06;6138023;28;20264;-52
2021/07/25 10:43:48;;;;;;;13.65;12.55;;;;;;;28.45;43.19;100845.69;6141059;28;20254;-55
2021/07/25 10:47:24;;;;;;;13.23;12.05;;;;;;;28.48;42.69;100840.06;6133968;28;20228;-51
2021/07/25 10:50:45;;;;;;;12.32;11.32;;;;;;;28.19;42.96;100836.28;6134355;28;20601;-56
2021/07/25 10:54:30;;;;;;;11.85;10.85;;;;;;;28.97;42.06;100844.94;6132922;28;20226;-53
2021/07/25 10:58:03;;;;;;;12.00;10.95;;;;;;;29.74;40.61;100835.53;6132909;28;20638;-55
2021/07/25 11:01:43;;;;;;;12.65;11.65;;;;;;;28.71;41.43;100842.63;6127056;28;20367;-54
2021/07/25 11:05:06;;;;;;;11.75;10.65;;;;;;;29.74;39.72;100835.53;6137051;28;20231;-54
2021/07/25 11:08:32;;;;;;;10.65;9.85;;;;;;;30.02;39.12;100834.72;6133193;28;20224;-53
2021/07/25 11:11:55;;;;;;;12.52;11.43;;;;;;;28.78;41.04;100835.78;6137144;28;20242;-54
2021/07/25 11:15:31;;;;;;;12.38;11.38;;;;;;;29.95;39.54;100836.28;6133524;28;20258;-53
2021/07/25 11:18:52;;;;;;;12.18;11.00;;;;;;;30.06;38.36;100840.66;6132746;28;20998;-52
2021/07/25 11:22:42;;;;;;;11.27;10.30;;;;;;;30.20;38.89;100831.34;6133485;28;20251;-54
2021/07/25 11:26:35;;;;;;;11.38;10.15;;;;;;;29.60;37.55;100826.88;6132868;28;20552;-54
2021/07/25 11:29:56;;;;;;;9.77;8.90;;;;;;;29.62;38.25;100830.28;6132600;28;20329;-51
2021/07/25 11:33:51;;;;;;;10.43;9.57;;;;;;;30.40;36.90;100835.75;6133820;28;20246;-53
2021/07/25 11:37:13;;;;;;;10.05;9.15;;;;;;;30.29;37.86;100835.03;6132150;28;20586;-53
2021/07/25 11:40:34;;;;;;;12.50;11.40;;;;;;;28.96;39.00;100843.22;6127264;28;20239;-56
2021/07/25 11:43:59;;;;;;;11.70;10.73;;;;;;;29.90;38.38;100838.53;6136338;28;20504;-51
2021/07/25 11:47:26;;;;;;;9.93;9.07;;;;;;;31.22;35.61;100840.69;6135528;28;20239;-53
2021/07/25 11:50:49;;;;;;;10.48;9.55;;;;;;;31.97;34.61;100831.50;6137431;28;20259;-55
2021/07/25 11:54:11;;;;;;;10.20;9.30;;;;;;;31.84;34.76;100836.41;6135591;28;20330;-52
2021/07/25 11:57:32;;;;;;;9.27;8.48;;;;;;;31.11;35.97;100837.19;6134340;28;20325;-53
2021/07/25 12:01:10;;;;;;;10.18;9.27;;;;;;;31.69;35.33;100837.94;6135161;28;20242;-50
2021/07/25 12:04:33;;;;;;;10.93;9.95;;;;;;;29.65;37.15;100832.66;6139603;28;20243;-51
2021/07/25 12:07:55;;;;;;;9.82;9.07;;;;;;;30.53;35.59;100829.22;6132597;28;20239;-51
2021/07/25 12:11:19;;;;;;;9.18;8.48;;;;;;;31.75;33.90;100834.63;6127298;28;20239;-52
2021/07/25 12:14:43;;;;;;;9.63;8.73;;;;;;;32.67;32.70;100825.41;6134042;28;20227;-56
2021/07/25 12:18:06;;;;;;;10.07;9.18;;;;;;;33.23;31.77;100830.47;6127773;28;20628;-53
2021/07/25 12:21:31;;;;;;;10.82;9.93;;;;;;;32.60;31.76;100827.03;6126386;28;20676;-55
2021/07/25 12:24:54;;;;;;;10.30;9.50;;;;;;;32.45;32.16;100833.97;6129998;28;20235;-50
2021/07/25 12:28:17;;;;;;;10.55;9.65;;;;;;;31.80;33.45;100829.66;6130453;28;20354;-54
2021/07/25 12:31:38;;;;;;;10.38;9.30;;;;;;;31.89;32.81;100825.19;6138108;28;20648;-49
2021/07/25 12:35:23;;;;;;;9.05;8.25;;;;;;;29.88;35.61;100829.78;6136674;28;20235;-53
2021/07/25 12:38:44;;;;;;;9.20;8.50;;;;;;;30.79;33.96;100824.09;6125713;28;20235;-55
2021/07/25 12:42:07;;;;;;;9.65;8.95;;;;;;;29.43;36.59;100827.53;6130121;28;20318;-52
2021/07/25 12:45:39;;;;;;;9.32;8.45;;;;;;;30.21;35.68;100825.00;6128961;28;20368;-53
2021/07/25 12:49:04;;;;;;;9.75;8.82;;;;;;;30.77;34.49;100837.69;6127283;28;20503;-54
2021/07/25 12:52:25;;;;;;;9.27;8.57;;;;;;;31.75;33.62;100823.88;6130656;28;20743;-54
2021/07/25 12:55:47;;;;;;;9.57;8.77;;;;;;;32.50;31.90;100827.13;6133851;28;20243;-54
2021/07/25 12:59:11;;;;;;;9.40;8.65;;;;;;;33.30;29.63;100823.44;6131654;28;20246;-55
2021/07/25 13:06:11;;;;;;;9.52;8.73;;;;;;;30.43;34.99;100829.25;6134037;28;20533;-51
2021/07/25 13:09:31;;;;;;;11.18;8.45;;;;;;;30.77;34.63;100823.41;6102089;28;20738;-55
2021/07/25 13:12:53;;;;;;;8.88;8.18;;;;;;;31.25;34.26;100821.56;6135334;28;20579;-53
2021/07/25 13:16:16;;;;;;;9.90;8.88;;;;;;;31.06;34.45;100823.34;6135596;28;20239;-50
2021/07/25 13:19:38;;;;;;;8.77;8.02;;;;;;;31.19;34.05;100820.31;6123817;28;20251;-54
2021/07/25 13:22:59;;;;;;;8.73;8.02;;;;;;;30.80;34.46;100825.78;6131454;28;20239;-55
2021/07/25 13:26:22;;;;;;;9.65;8.70;;;;;;;31.72;32.66;100808.88;6121473;28;20239;-50
2021/07/25 13:29:43;;;;;;;9.38;8.55;;;;;;;30.40;34.88;100816.97;6127383;28;20609;-51
2021/07/25 13:33:05;;;;;;;9.05;8.35;;;;;;;30.42;35.56;100817.66;6137173;28;20550;-53
2021/07/25 13:36:26;;;;;;;8.82;8.13;;;;;;;30.68;35.28;100826.97;6136953;28;20259;-52
2021/07/25 13:39:47;;;;;;;9.75;8.98;;;;;;;31.50;33.31;100820.88;6138366;28;20219;-55
2021/07/25 13:43:11;;;;;;;9.60;8.80;;;;;;;31.33;33.70;100833.28;6135204;28;20235;-55
2021/07/25 13:46:48;;;;;;;8.80;7.95;;;;;;;31.15;33.19;100829.66;6139114;28;20236;-56
2021/07/25 13:50:12;;;;;;;9.90;8.80;;;;;;;31.22;33.01;100829.94;6136028;28;20243;-51
2021/07/25 13:53:35;;;;;;;9.25;8.45;;;;;;;31.30;33.45;100820.13;6142867;28;20227;-49
2021/07/25 13:56:56;;;;;;;8.85;8.00;;;;;;;32.08;32.11;100826.91;6138489;28;20238;-52
2021/07/25 14:00:17;;;;;;;9.52;8.77;;;;;;;33.66;29.16;100817.84;6144726;28;20290;-52
2021/07/25 14:03:38;;;;;;;9.55;8.57;;;;;;;35.06;27.64;100813.28;6143070;28;20243;-55
2021/07/25 14:07:00;;;;;;;8.52;7.82;;;;;;;36.83;25.77;100825.19;6141009;28;20231;-53
2021/07/25 14:10:21;;;;;;;9.43;8.70;;;;;;;36.41;26.50;100819.31;6144385;28;20509;-51
2021/07/25 14:13:42;;;;;;;9.23;8.52;;;;;;;34.80;26.86;100816.22;6142268;28;20628;-53
2021/07/25 14:17:04;;;;;;;8.30;7.55;;;;;;;34.65;27.08;100814.19;6133577;28;20228;-50
2021/07/25 14:20:29;;;;;;;12.05;11.25;;;;;;;35.40;26.34;100804.88;6135136;28;21141;-50
2021/07/25 14:23:51;;;;;;;9.77;9.07;;;;;;;34.85;27.51;100797.63;6140213;28;20604;-56
2021/07/25 14:27:12;;;;;;;8.30;7.70;;;;;;;32.27;29.85;100797.13;6134275;28;20236;-52
2021/07/25 14:30:33;;;;;;;8.88;8.07;;;;;;;31.70;30.79;100785.78;6137334;28;20624;-53
2021/07/25 14:33:54;;;;;;;8.52;7.75;;;;;;;31.22;32.11;100786.91;6130897;28;20511;-52
2021/07/25 14:37:15;;;;;;;7.63;7.03;;;;;;;31.80;30.73;100786.56;6137345;28;20252;-51
2021/07/25 14:40:37;;;;;;;8.40;7.80;;;;;;;30.10;33.34;100785.69;6141196;28;20235;-54
2021/07/25 14:43:58;;;;;;;8.43;7.78;;;;;;;29.73;34.09;100798.97;6136499;28;20243;-55
2021/07/25 14:47:19;;;;;;;8.68;7.97;;;;;;;30.34;33.25;100801.41;6142423;28;20235;-54
2021/07/25 14:50:39;;;;;;;9.05;8.02;;;;;;;29.11;35.83;100799.00;6140460;28;20243;-54
2021/07/25 14:54:00;;;;;;;8.68;7.88;;;;;;;29.42;35.78;100786.44;6131083;28;20227;-50
2021/07/25 14:57:23;;;;;;;9.13;8.38;;;;;;;29.34;35.87;100791.63;6137627;28;20521;-54
2021/07/25 15:00:45;;;;;;;8.88;7.97;;;;;;;29.46;35.61;100781.63;6133818;28;20227;-55
2021/07/25 15:04:06;;;;;;;8.68;8.07;;;;;;;29.61;35.28;100788.31;6137131;28;20270;-53
2021/07/25 15:07:26;;;;;;;9.07;8.38;;;;;;;28.92;36.79;100785.50;6142311;28;20239;-53
2021/07/25 15:10:47;;;;;;;9.07;8.27;;;;;;;28.77;36.65;100779.63;6141409;28;20231;-53
2021/07/25 15:14:13;;;;;;;9.88;8.95;;;;;;;28.73;36.87;100772.84;6136409;28;20546;-49
2021/07/25 15:17:34;;;;;;;9.85;9.00;;;;;;;29.90;35.48;100774.13;6126083;28;20525;-50
2021/07/25 15:20:55;;;;;;;10.18;9.27;;;;;;;29.83;35.13;100783.72;6125206;28;20322;-51
2021/07/25 15:24:16;;;;;;;8.80;8.10;;;;;;;28.85;36.68;100786.03;6125513;28;20235;-50
2021/07/25 15:27:36;;;;;;;8.75;8.10;;;;;;;28.83;36.89;100788.00;6153311;28;20246;-54
2021/07/25 15:30:59;;;;;;;8.35;7.65;;;;;;;29.53;36.38;100788.16;6132669;28;20239;-52